Time;durP1;ratioP1;P1;durP2;ratioP2;P2;SDS_P1;SDS_P2;PMS_P1;PMS_P2;Temp;Humidity;BMP_temperature;BMP_pressure;BME280_temperature;BME280_humidity;BME280_pressure;Samples;Min_cycle;Max_cycle;Signal;HPM_P1;HPM_P2
2021/10/27 00:01:45;;;;;;;;;;;13.30;99.90;;;;;;5051972;28;19921;-67
2021/10/27 00:04:10;;;;;;;;;;;13.30;99.90;;;;;;5047389;28;19936;-67
2021/10/27 00:06:36;;;;;;;;;;;13.30;99.90;;;;;;5051227;28;20400;-67
2021/10/27 00:09:05;;;;;;;;;;;13.30;99.90;;;;;;5053419;28;19923;-67
2021/10/27 00:11:31;;;;;;;;;;;13.30;99.90;;;;;;5047723;28;20020;-67
2021/10/27 00:13:57;;;;;;;;;;;13.30;99.90;;;;;;5047925;28;19916;-66
2021/10/27 00:16:22;;;;;;;;;;;13.40;99.90;;;;;;5051960;28;19916;-66
2021/10/27 00:18:48;;;;;;;;;;;13.40;99.90;;;;;;5051409;28;19924;-66
2021/10/27 00:21:13;;;;;;;;;;;13.40;99.90;;;;;;5050491;28;19916;-66
2021/10/27 00:23:39;;;;;;;;;;;13.40;99.90;;;;;;5051220;28;19985;-66
2021/10/27 00:26:04;;;;;;;;;;;13.40;99.90;;;;;;5053122;28;20410;-66
2021/10/27 00:28:30;;;;;;;;;;;13.40;99.90;;;;;;5034713;28;20314;-67
2021/10/27 00:30:55;;;;;;;;;;;13.40;99.90;;;;;;5034593;28;19920;-66
2021/10/27 00:33:21;;;;;;;;;;;13.30;99.90;;;;;;5051172;28;19927;-67
2021/10/27 00:35:46;;;;;;;;;;;13.40;99.90;;;;;;5051891;28;19920;-66
2021/10/27 00:38:12;;;;;;;;;;;13.40;99.90;;;;;;5051198;28;19920;-67
2021/10/27 00:40:37;;;;;;;;;;;13.40;99.90;;;;;;5046159;28;19923;-66
2021/10/27 00:43:03;;;;;;;;;;;13.30;99.90;;;;;;5050829;28;19925;-67
2021/10/27 00:45:28;;;;;;;;;;;13.40;99.90;;;;;;5051897;28;19916;-66
2021/10/27 00:47:54;;;;;;;;;;;13.30;99.90;;;;;;5051325;28;19920;-66
2021/10/27 00:50:19;;;;;;;;;;;13.40;99.90;;;;;;5034478;28;19916;-66
2021/10/27 00:52:45;;;;;;;;;;;13.40;99.90;;;;;;5050136;28;19921;-67
2021/10/27 00:55:11;;;;;;;;;;;13.40;99.90;;;;;;5052316;28;19920;-67
2021/10/27 00:57:37;;;;;;;;;;;13.40;99.90;;;;;;5048200;28;19917;-67
2021/10/27 01:00:07;;;;;;;;;;;13.40;99.90;;;;;;5049343;28;20273;-66
2021/10/27 01:02:33;;;;;;;;;;;13.40;99.90;;;;;;5051008;28;19927;-67
2021/10/27 01:04:58;;;;;;;;;;;13.30;99.90;;;;;;5046295;28;19921;-67
2021/10/27 01:07:24;;;;;;;;;;;13.40;99.90;;;;;;5047153;28;20317;-67
2021/10/27 01:09:51;;;;;;;;;;;13.40;99.90;;;;;;5051240;28;19928;-67
2021/10/27 01:12:16;;;;;;;;;;;13.30;99.90;;;;;;5028481;28;19924;-67
2021/10/27 01:14:43;;;;;;;;;;;13.30;99.90;;;;;;5032626;28;19917;-67
2021/10/27 01:17:11;;;;;;;;;;;13.30;99.90;;;;;;5033246;28;19921;-68
2021/10/27 01:19:46;;;;;;;;;;;13.20;99.90;;;;;;5050486;28;19917;-68
2021/10/27 01:22:12;;;;;;;;;;;13.30;99.90;;;;;;5049978;28;20022;-67
2021/10/27 01:24:38;;;;;;;;;;;13.30;99.90;;;;;;5050567;28;19917;-67
2021/10/27 01:27:03;;;;;;;;;;;13.30;99.90;;;;;;5050839;28;19923;-67
2021/10/27 01:29:29;;;;;;;;;;;13.30;99.90;;;;;;5050237;28;19956;-67
2021/10/27 01:31:54;;;;;;;;;;;13.30;99.90;;;;;;5049884;28;20377;-66
2021/10/27 01:34:20;;;;;;;;;;;13.30;99.90;;;;;;5049692;28;20011;-67
2021/10/27 01:36:45;;;;;;;;;;;13.30;99.90;;;;;;5049207;28;20445;-67
2021/10/27 01:39:11;;;;;;;;;;;13.30;99.90;;;;;;5050312;28;19916;-66
2021/10/27 01:41:36;;;;;;;;;;;13.30;99.90;;;;;;5044063;28;20003;-67
2021/10/27 01:44:02;;;;;;;;;;;13.30;99.90;;;;;;5053655;28;19916;-67
2021/10/27 01:46:29;;;;;;;;;;;13.30;99.90;;;;;;5055494;28;20325;-67
2021/10/27 01:48:55;;;;;;;;;;;13.30;99.90;;;;;;5054235;28;20007;-67
2021/10/27 01:51:21;;;;;;;;;;;13.30;99.90;;;;;;5054063;28;20007;-67
2021/10/27 01:53:46;;;;;;;;;;;13.40;99.90;;;;;;5054962;28;19921;-67
2021/10/27 01:56:12;;;;;;;;;;;13.40;99.90;;;;;;5053180;28;19916;-67
2021/10/27 01:58:38;;;;;;;;;;;13.40;99.90;;;;;;5054814;28;19916;-67
2021/10/27 02:01:03;;;;;;;;;;;13.40;99.90;;;;;;5054264;28;19923;-67
2021/10/27 02:03:29;;;;;;;;;;;13.40;99.90;;;;;;5037507;28;19970;-67
2021/10/27 02:05:54;;;;;;;;;;;13.40;99.90;;;;;;5054724;28;19995;-67
2021/10/27 02:08:20;;;;;;;;;;;13.40;99.90;;;;;;5054363;28;19924;-67
2021/10/27 02:10:45;;;;;;;;;;;13.40;99.90;;;;;;5054098;28;19999;-68
2021/10/27 02:13:11;;;;;;;;;;;13.40;99.90;;;;;;5053367;28;19924;-67
2021/10/27 02:15:36;;;;;;;;;;;13.50;99.90;;;;;;5053753;28;19927;-67
2021/10/27 02:18:01;;;;;;;;;;;13.40;99.90;;;;;;5028672;28;20362;-67
2021/10/27 02:20:27;;;;;;;;;;;13.40;99.90;;;;;;5054442;28;19952;-67
2021/10/27 02:22:52;;;;;;;;;;;13.40;99.90;;;;;;5053664;28;19928;-67
2021/10/27 02:25:18;;;;;;;;;;;13.40;99.90;;;;;;5053988;28;19916;-67
2021/10/27 02:27:43;;;;;;;;;;;13.40;99.90;;;;;;5052533;28;19972;-67
2021/10/27 02:30:09;;;;;;;;;;;13.40;99.90;;;;;;5053610;28;19959;-66
2021/10/27 02:32:35;;;;;;;;;;;13.50;99.90;;;;;;5054104;28;19917;-67
2021/10/27 02:35:00;;;;;;;;;;;13.50;99.90;;;;;;5053841;28;20591;-67
2021/10/27 02:37:25;;;;;;;;;;;13.50;99.90;;;;;;5053970;28;20337;-67
2021/10/27 02:39:51;;;;;;;;;;;13.50;99.90;;;;;;5053142;28;19921;-67
2021/10/27 02:42:16;;;;;;;;;;;13.50;99.90;;;;;;5035777;28;19924;-67
2021/10/27 02:44:42;;;;;;;;;;;13.50;99.90;;;;;;5055030;28;19917;-67
2021/10/27 02:47:07;;;;;;;;;;;13.50;99.90;;;;;;5055239;28;19923;-67
2021/10/27 02:49:33;;;;;;;;;;;13.50;99.90;;;;;;5053934;28;20358;-67
2021/10/27 02:51:58;;;;;;;;;;;13.50;99.90;;;;;;5052250;28;19920;-67
2021/10/27 02:54:24;;;;;;;;;;;13.50;99.90;;;;;;5051860;28;19932;-67
2021/10/27 02:56:49;;;;;;;;;;;13.40;99.90;;;;;;5054721;28;19917;-67
2021/10/27 02:59:15;;;;;;;;;;;13.50;99.90;;;;;;5043917;28;20548;-67
2021/10/27 03:01:40;;;;;;;;;;;13.50;99.90;;;;;;5047248;28;19951;-67
2021/10/27 03:04:07;;;;;;;;;;;13.50;99.90;;;;;;5025373;28;19995;-67
2021/10/27 03:06:33;;;;;;;;;;;13.50;99.90;;;;;;5052251;28;19974;-67
2021/10/27 03:08:58;;;;;;;;;;;13.50;99.90;;;;;;5053474;28;19943;-67
2021/10/27 03:11:24;;;;;;;;;;;13.50;99.90;;;;;;5053525;28;19916;-67
2021/10/27 03:13:49;;;;;;;;;;;13.50;99.90;;;;;;5050895;28;19939;-67
2021/10/27 03:16:15;;;;;;;;;;;13.50;99.90;;;;;;5052643;28;19960;-67
2021/10/27 03:18:40;;;;;;;;;;;13.50;99.90;;;;;;5048460;28;19925;-67
2021/10/27 03:21:05;;;;;;;;;;;13.50;99.90;;;;;;5060796;28;20434;-67
2021/10/27 03:23:31;;;;;;;;;;;13.50;99.90;;;;;;5052622;28;19920;-67
2021/10/27 03:25:57;;;;;;;;;;;13.60;99.90;;;;;;5053365;28;19964;-67
2021/10/27 03:28:23;;;;;;;;;;;13.50;99.90;;;;;;5052971;28;19986;-67
2021/10/27 03:30:48;;;;;;;;;;;13.60;99.90;;;;;;5053131;28;20382;-67
2021/10/27 03:33:14;;;;;;;;;;;13.50;99.90;;;;;;5053437;28;19966;-67
2021/10/27 03:35:39;;;;;;;;;;;13.50;99.90;;;;;;5053106;28;19923;-67
2021/10/27 03:38:05;;;;;;;;;;;13.50;99.90;;;;;;5021705;28;19996;-67
2021/10/27 03:40:30;;;;;;;;;;;13.60;99.90;;;;;;5047082;28;19920;-67
2021/10/27 03:43:14;;;;;;;;;;;13.60;99.90;;;;;;5052956;28;19923;-67
2021/10/27 03:45:40;;;;;;;;;;;13.60;99.90;;;;;;5043088;28;19921;-67
2021/10/27 03:48:06;;;;;;;;;;;13.60;99.90;;;;;;5052786;28;19916;-67
2021/10/27 03:50:32;;;;;;;;;;;13.60;99.90;;;;;;5052328;28;19959;-67
2021/10/27 03:52:59;;;;;;;;;;;13.60;99.90;;;;;;5052646;28;20006;-67
2021/10/27 03:55:24;;;;;;;;;;;13.60;99.90;;;;;;5050472;28;19921;-67
2021/10/27 03:57:50;;;;;;;;;;;13.70;99.90;;;;;;5051810;28;19926;-66
2021/10/27 04:00:16;;;;;;;;;;;13.70;99.90;;;;;;5052124;28;19916;-67
2021/10/27 04:02:41;;;;;;;;;;;13.70;99.90;;;;;;5051243;28;19925;-66
2021/10/27 04:05:07;;;;;;;;;;;13.80;99.90;;;;;;5052013;28;19916;-66
2021/10/27 04:07:36;;;;;;;;;;;13.70;99.90;;;;;;5052356;28;19925;-67
2021/10/27 04:10:06;;;;;;;;;;;13.70;99.90;;;;;;5051079;28;19917;-66
2021/10/27 04:12:34;;;;;;;;;;;13.80;99.90;;;;;;5052146;28;20324;-67
2021/10/27 04:14:59;;;;;;;;;;;13.70;99.90;;;;;;5052238;28;19962;-67
2021/10/27 04:17:25;;;;;;;;;;;13.70;99.90;;;;;;5053180;28;19917;-67
2021/10/27 04:19:50;;;;;;;;;;;13.70;99.90;;;;;;5051575;28;19996;-67
2021/10/27 04:22:19;;;;;;;;;;;13.70;99.90;;;;;;5051736;28;20019;-67
2021/10/27 04:24:44;;;;;;;;;;;13.70;99.90;;;;;;5053230;28;20007;-67
2021/10/27 04:27:10;;;;;;;;;;;13.70;99.90;;;;;;5051343;28;19921;-67
2021/10/27 04:29:35;;;;;;;;;;;13.70;99.90;;;;;;5053060;28;20254;-67
2021/10/27 04:32:01;;;;;;;;;;;13.70;99.90;;;;;;5051454;28;19921;-67
2021/10/27 04:34:26;;;;;;;;;;;13.70;99.90;;;;;;5051079;28;19917;-67
2021/10/27 04:36:52;;;;;;;;;;;13.80;99.90;;;;;;5051188;28;19940;-66
2021/10/27 04:39:17;;;;;;;;;;;13.80;99.90;;;;;;5051485;28;19924;-66
2021/10/27 04:41:43;;;;;;;;;;;13.80;99.90;;;;;;5050531;28;19975;-67
2021/10/27 04:44:08;;;;;;;;;;;13.80;99.90;;;;;;5051486;28;19924;-67
2021/10/27 04:46:34;;;;;;;;;;;13.80;99.90;;;;;;5052474;28;19916;-67
2021/10/27 04:48:59;;;;;;;;;;;13.80;99.90;;;;;;5051426;28;20278;-66
2021/10/27 04:51:25;;;;;;;;;;;13.80;99.90;;;;;;5051766;28;19917;-67
2021/10/27 04:53:50;;;;;;;;;;;13.70;99.90;;;;;;5049681;28;20003;-66
2021/10/27 04:56:15;;;;;;;;;;;13.70;99.90;;;;;;5051003;28;19924;-66
2021/10/27 04:58:41;;;;;;;;;;;13.70;99.90;;;;;;5039169;28;20343;-66
2021/10/27 05:01:06;;;;;;;;;;;13.80;99.90;;;;;;5039894;28;19917;-67
2021/10/27 05:03:32;;;;;;;;;;;13.70;99.90;;;;;;5030541;28;19960;-67
2021/10/27 05:05:59;;;;;;;;;;;13.70;99.90;;;;;;5051407;28;20049;-67
2021/10/27 05:08:24;;;;;;;;;;;13.70;99.90;;;;;;5046490;28;19963;-67
2021/10/27 05:10:50;;;;;;;;;;;13.70;99.90;;;;;;5043719;28;19964;-67
2021/10/27 05:13:16;;;;;;;;;;;13.70;99.90;;;;;;5032077;28;20387;-67
2021/10/27 05:15:42;;;;;;;;;;;13.70;99.90;;;;;;5021766;28;19922;-66
2021/10/27 05:18:07;;;;;;;;;;;13.70;99.90;;;;;;5037536;28;20298;-66
2021/10/27 05:20:33;;;;;;;;;;;13.70;99.90;;;;;;5049296;28;19924;-67
2021/10/27 05:22:58;;;;;;;;;;;13.70;99.90;;;;;;5055226;28;20358;-66
2021/10/27 05:25:24;;;;;;;;;;;13.70;99.90;;;;;;5036308;28;20417;-66
2021/10/27 05:27:49;;;;;;;;;;;13.70;99.90;;;;;;5044722;28;19995;-67
2021/10/27 05:30:15;;;;;;;;;;;13.80;99.90;;;;;;5051490;28;19994;-67
2021/10/27 05:32:40;;;;;;;;;;;13.90;99.90;;;;;;5036559;28;20247;-67
2021/10/27 05:35:06;;;;;;;;;;;13.80;99.90;;;;;;5020638;28;19924;-67
2021/10/27 05:37:32;;;;;;;;;;;13.80;99.90;;;;;;5049173;28;19924;-67
2021/10/27 05:39:57;;;;;;;;;;;13.70;99.90;;;;;;5032151;28;19939;-66
2021/10/27 05:42:27;;;;;;;;;;;13.70;99.90;;;;;;5055651;28;19921;-67
2021/10/27 05:44:53;;;;;;;;;;;13.70;99.90;;;;;;5053565;28;19923;-67
2021/10/27 05:47:18;;;;;;;;;;;13.80;99.90;;;;;;5055115;28;19916;-67
2021/10/27 05:49:56;;;;;;;;;;;13.80;99.90;;;;;;5054607;28;19920;-66
2021/10/27 05:57:37;;;;;;;;;;;13.80;99.90;;;;;;5053737;28;19916;-66
2021/10/27 06:00:06;;;;;;;;;;;13.80;99.90;;;;;;5053174;28;19928;-66
2021/10/27 06:02:31;;;;;;;;;;;13.70;99.90;;;;;;5053254;28;19924;-66
2021/10/27 06:04:57;;;;;;;;;;;13.70;99.90;;;;;;5018560;28;19924;-66
2021/10/27 06:07:22;;;;;;;;;;;13.70;99.90;;;;;;5035030;28;20259;-66
2021/10/27 06:09:49;;;;;;;;;;;13.70;99.90;;;;;;5053535;28;19967;-66
2021/10/27 06:12:16;;;;;;;;;;;13.70;99.90;;;;;;5053619;28;19998;-66
2021/10/27 06:14:42;;;;;;;;;;;13.70;99.90;;;;;;5053715;28;19987;-66
2021/10/27 06:17:07;;;;;;;;;;;13.70;99.90;;;;;;5053580;28;19920;-66
2021/10/27 06:19:33;;;;;;;;;;;13.70;99.90;;;;;;5053283;28;20549;-66
2021/10/27 06:21:58;;;;;;;;;;;13.70;99.90;;;;;;5053449;28;19928;-66
2021/10/27 06:24:24;;;;;;;;;;;13.70;99.90;;;;;;5052902;28;19916;-67
2021/10/27 06:26:51;;;;;;;;;;;13.70;99.90;;;;;;5054454;28;20373;-66
2021/10/27 06:29:28;;;;;;;;;;;13.70;99.90;;;;;;5051166;28;19920;-65
2021/10/27 06:32:19;;;;;;;;;;;13.70;99.90;;;;;;5053029;28;19923;-65
2021/10/27 06:34:52;;;;;;;;;;;13.60;99.90;;;;;;5053114;28;19963;-64
2021/10/27 06:48:14;;;;;;;;;;;13.70;99.90;;;;;;5044015;28;20258;-65
2021/10/27 06:50:40;;;;;;;;;;;13.70;99.90;;;;;;5050036;28;19933;-65
2021/10/27 06:53:06;;;;;;;;;;;13.70;99.90;;;;;;5029359;28;19925;-65
2021/10/27 06:55:35;;;;;;;;;;;13.80;99.90;;;;;;5045867;28;19923;-65
2021/10/27 06:58:01;;;;;;;;;;;13.70;99.90;;;;;;5050381;28;19921;-65
2021/10/27 07:16:23;;;;;;;;;;;13.70;99.90;;;;;;5050857;28;19916;-64
2021/10/27 07:18:49;;;;;;;;;;;13.70;99.90;;;;;;5027057;28;20259;-64
2021/10/27 07:21:14;;;;;;;;;;;13.70;99.90;;;;;;5048812;28;20010;-64
2021/10/27 07:23:40;;;;;;;;;;;13.70;99.90;;;;;;5052217;28;19925;-65
2021/10/27 07:26:06;;;;;;;;;;;13.70;99.90;;;;;;5051349;28;19916;-65
2021/10/27 07:28:33;;;;;;;;;;;13.80;99.90;;;;;;5039440;28;19932;-65
2021/10/27 07:31:00;;;;;;;;;;;13.70;99.90;;;;;;5049698;28;19925;-65
2021/10/27 07:33:26;;;;;;;;;;;13.70;99.90;;;;;;5045104;28;19917;-65
2021/10/27 07:36:11;;;;;;;;;;;13.70;99.90;;;;;;5046084;28;19927;-65
2021/10/27 07:41:21;;;;;;;;;;;13.70;99.90;;;;;;5044883;28;19997;-65
2021/10/27 07:43:48;;;;;;;;;;;13.80;99.90;;;;;;5031501;28;20011;-65
2021/10/27 07:46:15;;;;;;;;;;;13.80;99.90;;;;;;5031906;28;19928;-65
2021/10/27 07:48:40;;;;;;;;;;;13.80;99.90;;;;;;5045734;28;20298;-65
2021/10/27 07:51:06;;;;;;;;;;;13.80;99.90;;;;;;5051670;28;19917;-65
2021/10/27 07:53:32;;;;;;;;;;;13.90;99.90;;;;;;5051432;28;19987;-65
2021/10/27 07:55:58;;;;;;;;;;;13.90;99.90;;;;;;5052129;28;19916;-65
2021/10/27 07:58:24;;;;;;;;;;;14.00;99.90;;;;;;5049394;28;20370;-64
2021/10/27 08:00:56;;;;;;;;;;;14.00;99.90;;;;;;5052076;28;19927;-64
2021/10/27 08:03:21;;;;;;;;;;;14.00;99.90;;;;;;5052774;28;19927;-64
2021/10/27 08:05:48;;;;;;;;;;;14.10;99.90;;;;;;5049309;28;19917;-64
2021/10/27 08:08:14;;;;;;;;;;;14.10;99.90;;;;;;5052490;28;19976;-64
2021/10/27 08:10:41;;;;;;;;;;;14.20;99.90;;;;;;5050012;28;20432;-65
2021/10/27 08:13:07;;;;;;;;;;;14.20;99.90;;;;;;5037035;28;19921;-65
2021/10/27 08:15:33;;;;;;;;;;;14.10;99.90;;;;;;5052642;28;19920;-65
2021/10/27 08:17:59;;;;;;;;;;;14.20;99.90;;;;;;5048563;28;19966;-65
2021/10/27 08:20:26;;;;;;;;;;;14.20;99.90;;;;;;5047847;28;19924;-65
2021/10/27 08:22:56;;;;;;;;;;;14.20;99.90;;;;;;5051117;28;19924;-64
2021/10/27 08:27:55;;;;;;;;;;;14.30;99.90;;;;;;5045197;28;20370;-64
2021/10/27 08:30:26;;;;;;;;;;;14.30;99.90;;;;;;5046195;28;19924;-65
2021/10/27 08:32:56;;;;;;;;;;;14.20;99.90;;;;;;5041715;28;19920;-65
2021/10/27 08:35:21;;;;;;;;;;;14.20;99.90;;;;;;5044952;28;19917;-64
2021/10/27 08:37:48;;;;;;;;;;;14.20;99.90;;;;;;5048033;28;19923;-64
2021/10/27 08:40:15;;;;;;;;;;;14.20;99.90;;;;;;5047845;28;19921;-64
2021/10/27 08:42:42;;;;;;;;;;;14.20;99.90;;;;;;5048831;28;20023;-64
2021/10/27 08:45:07;;;;;;;;;;;14.20;99.90;;;;;;5049366;28;19935;-64
2021/10/27 08:47:34;;;;;;;;;;;14.20;99.90;;;;;;5044246;28;19916;-64
2021/10/27 08:50:00;;;;;;;;;;;14.20;99.90;;;;;;5042010;28;19952;-65
2021/10/27 08:52:25;;;;;;;;;;;14.20;99.90;;;;;;5035769;28;19975;-65
2021/10/27 08:54:51;;;;;;;;;;;14.30;99.90;;;;;;5040537;28;19983;-65
2021/10/27 08:57:18;;;;;;;;;;;14.30;99.90;;;;;;5041201;28;19996;-65
2021/10/27 09:00:06;;;;;;;;;;;14.30;99.90;;;;;;5041085;28;19971;-64
2021/10/27 09:02:46;;;;;;;;;;;14.30;99.90;;;;;;5032805;28;19921;-64
2021/10/27 09:10:34;;;;;;;;;;;14.30;99.90;;;;;;5040643;28;19916;-64
2021/10/27 09:38:35;;;;;;;;;;;14.50;99.90;;;;;;5050961;28;19920;-64
2021/10/27 10:06:14;;;;;;;;;;;14.80;99.90;;;;;;5033105;28;19917;-67
2021/10/27 10:08:46;;;;;;;;;;;14.80;99.90;;;;;;5038294;28;19987;-67
2021/10/27 10:11:12;;;;;;;;;;;14.80;99.90;;;;;;5052772;28;20374;-69
2021/10/27 10:13:42;;;;;;;;;;;14.80;99.90;;;;;;5036376;28;19995;-67
2021/10/27 10:16:08;;;;;;;;;;;14.80;99.90;;;;;;5052547;28;19921;-65
2021/10/27 10:18:37;;;;;;;;;;;14.90;99.90;;;;;;5049135;28;20364;-67
2021/10/27 10:21:03;;;;;;;;;;;14.90;99.90;;;;;;5034220;28;19917;-66
2021/10/27 10:23:29;;;;;;;;;;;14.80;99.90;;;;;;5032941;28;19920;-66
2021/10/27 10:25:56;;;;;;;;;;;14.90;99.90;;;;;;5051997;28;20015;-66
2021/10/27 10:28:26;;;;;;;;;;;14.90;99.90;;;;;;5053127;28;19923;-66
2021/10/27 10:30:58;;;;;;;;;;;15.00;99.90;;;;;;5053372;28;19920;-66
2021/10/27 10:33:46;;;;;;;;;;;15.10;99.90;;;;;;5053310;28;19938;-66
2021/10/27 10:36:21;;;;;;;;;;;15.10;99.90;;;;;;5053180;28;19975;-66
2021/10/27 11:03:25;;;;;;;;;;;15.70;99.90;;;;;;5032443;28;20028;-66
2021/10/27 11:25:48;;;;;;;;;;;15.80;99.90;;;;;;5026013;28;20274;-68
2021/10/27 11:37:19;;;;;;;;;;;15.80;99.90;;;;;;5010814;28;20285;-68
2021/10/27 11:39:36;;;;;;;;;;;15.80;99.90;;;;;;5019007;28;19921;-68
2021/10/27 11:42:24;;;;;;;;;;;15.90;99.90;;;;;;5027489;28;20275;-68
2021/10/27 11:47:32;;;;;;;;;;;15.80;99.90;;;;;;5026188;28;19995;-68
2021/10/27 11:49:57;;;;;;;;;;;15.90;99.90;;;;;;5025509;28;19917;-68
2021/10/27 11:52:29;;;;;;;;;;;15.80;99.90;;;;;;5026717;28;19917;-68
2021/10/27 11:54:56;;;;;;;;;;;15.80;99.90;;;;;;5029769;28;19921;-68
2021/10/27 11:57:22;;;;;;;;;;;15.80;99.90;;;;;;5044770;28;19925;-68
2021/10/27 11:59:50;;;;;;;;;;;15.80;99.90;;;;;;5029117;28;19923;-68
2021/10/27 12:02:16;;;;;;;;;;;15.80;99.90;;;;;;5030085;28;19920;-68
2021/10/27 12:04:43;;;;;;;;;;;15.80;99.90;;;;;;5048044;28;20636;-68
2021/10/27 12:07:16;;;;;;;;;;;15.90;99.90;;;;;;5029477;28;19917;-68
2021/10/27 12:14:57;;;;;;;;;;;15.80;99.90;;;;;;5040801;28;20364;-68
2021/10/27 12:19:51;;;;;;;;;;;15.80;99.90;;;;;;5050844;28;19921;-67
2021/10/27 12:22:20;;;;;;;;;;;15.80;99.90;;;;;;5048304;28;19932;-68
2021/10/27 12:24:51;;;;;;;;;;;15.80;99.90;;;;;;5049400;28;19921;-67
2021/10/27 12:27:23;;;;;;;;;;;15.80;99.90;;;;;;5021424;28;20020;-67
2021/10/27 12:29:53;;;;;;;;;;;15.80;99.90;;;;;;5035201;28;19917;-67
2021/10/27 12:32:19;;;;;;;;;;;15.80;99.90;;;;;;5025936;28;19921;-67
2021/10/27 12:34:46;;;;;;;;;;;15.80;99.90;;;;;;5032239;28;19924;-68
2021/10/27 12:37:24;;;;;;;;;;;15.80;99.90;;;;;;5030678;28;19943;-68
2021/10/27 12:39:50;;;;;;;;;;;15.70;99.90;;;;;;5048698;28;20370;-68
2021/10/27 12:42:16;;;;;;;;;;;15.70;99.90;;;;;;5050541;28;20007;-67
2021/10/27 12:44:47;;;;;;;;;;;15.60;99.90;;;;;;5040863;28;20330;-68
2021/10/27 12:47:14;;;;;;;;;;;15.50;99.90;;;;;;5024964;28;19921;-68
2021/10/27 12:49:40;;;;;;;;;;;15.50;99.90;;;;;;5030474;28;19928;-68
2021/10/27 12:52:25;;;;;;;;;;;15.50;99.90;;;;;;5032206;28;19917;-68
2021/10/27 12:55:11;;;;;;;;;;;15.50;99.90;;;;;;5029285;28;19920;-68
2021/10/27 12:57:52;;;;;;;;;;;15.50;99.90;;;;;;5030102;28;19917;-68
2021/10/27 13:00:25;;;;;;;;;;;15.40;99.90;;;;;;5029826;28;19965;-67
2021/10/27 13:03:17;;;;;;;;;;;15.40;99.90;;;;;;5012260;28;20011;-68
2021/10/27 13:05:48;;;;;;;;;;;15.40;99.90;;;;;;5029604;28;19924;-67
2021/10/27 13:13:55;;;;;;;;;;;15.40;99.90;;;;;;5029795;28;20020;-68
2021/10/27 13:16:46;;;;;;;;;;;15.40;99.90;;;;;;5030061;28;19924;-68
2021/10/27 13:22:08;;;;;;;;;;;15.50;99.90;;;;;;5032079;28;19917;-68
2021/10/27 13:30:08;;;;;;;;;;;15.50;99.90;;;;;;5029580;28;19932;-68
2021/10/27 13:32:41;;;;;;;;;;;15.60;99.90;;;;;;5029365;28;19917;-68
2021/10/27 13:35:07;;;;;;;;;;;15.50;99.90;;;;;;5026873;28;20008;-68
2021/10/27 13:37:34;;;;;;;;;;;15.50;99.90;;;;;;5036623;28;20441;-68
2021/10/27 13:40:00;;;;;;;;;;;15.50;99.90;;;;;;5021885;28;19971;-68
2021/10/27 13:42:31;;;;;;;;;;;15.40;99.90;;;;;;5034631;28;19952;-68
2021/10/27 13:47:46;;;;;;;;;;;15.40;99.90;;;;;;5029368;28;19918;-68
2021/10/27 14:06:46;;;;;;;;;;;15.20;99.90;;;;;;5034038;28;20373;-66
2021/10/27 14:09:33;;;;;;;;;;;15.20;99.90;;;;;;5012979;28;19933;-66
2021/10/27 14:12:05;;;;;;;;;;;15.20;99.90;;;;;;5015905;28;19921;-66
2021/10/27 14:17:27;;;;;;;;;;;15.20;99.90;;;;;;5030442;28;19928;-66
2021/10/27 14:47:27;;;;;;;;;;;15.00;99.90;;;;;;5032207;28;19925;-66
2021/10/27 15:19:56;;;;;;;;;;;14.70;99.90;;;;;;5023292;28;19964;-66
2021/10/27 15:25:19;;;;;;;;;;;14.70;99.90;;;;;;5014594;28;20085;-66
2021/10/27 15:30:34;;;;;;;;;;;14.70;99.90;;;;;;5029986;28;20330;-66
2021/10/27 15:44:15;;;;;;;;;;;14.60;99.90;;;;;;5032760;28;20271;-66
2021/10/27 15:52:12;;;;;;;;;;;14.60;99.90;;;;;;5031473;28;19928;-67
2021/10/27 15:54:38;;;;;;;;;;;14.60;99.90;;;;;;5014249;28;20410;-67
2021/10/27 15:57:03;;;;;;;;;;;14.60;99.90;;;;;;5047504;28;20032;-66
2021/10/27 15:59:30;;;;;;;;;;;14.60;99.90;;;;;;5032707;28;19924;-67
2021/10/27 16:01:56;;;;;;;;;;;14.60;99.90;;;;;;5032528;28;19948;-66
2021/10/27 16:04:21;;;;;;;;;;;14.60;99.90;;;;;;5031558;28;19982;-66
2021/10/27 16:06:52;;;;;;;;;;;14.50;99.90;;;;;;5031158;28;19917;-66
2021/10/27 16:09:18;;;;;;;;;;;14.60;99.90;;;;;;5032606;28;19921;-66
2021/10/27 16:11:46;;;;;;;;;;;14.50;99.90;;;;;;5019374;28;19917;-66
2021/10/27 16:14:12;;;;;;;;;;;14.40;99.90;;;;;;5032320;28;20468;-67
2021/10/27 16:16:38;;;;;;;;;;;14.50;99.90;;;;;;5031201;28;20265;-66
2021/10/27 16:19:03;;;;;;;;;;;14.50;99.90;;;;;;5016269;28;19927;-67
2021/10/27 16:21:29;;;;;;;;;;;14.50;99.90;;;;;;5027581;28;20390;-66
2021/10/27 16:23:55;;;;;;;;;;;14.50;99.90;;;;;;5012528;28;19932;-66
2021/10/27 16:26:21;;;;;;;;;;;14.50;99.90;;;;;;5011414;28;19917;-66
2021/10/27 16:28:47;;;;;;;;;;;14.60;99.90;;;;;;5028448;28;19949;-67
2021/10/27 16:31:13;;;;;;;;;;;14.60;99.90;;;;;;5031223;28;20278;-66
2021/10/27 16:33:41;;;;;;;;;;;14.50;99.90;;;;;;5032134;28;19921;-67
2021/10/27 16:36:06;;;;;;;;;;;14.40;99.90;;;;;;5030877;28;19921;-66
2021/10/27 16:38:32;;;;;;;;;;;14.40;99.90;;;;;;5030776;28;20054;-67
2021/10/27 16:40:57;;;;;;;;;;;14.30;99.90;;;;;;5032034;28;19921;-66
2021/10/27 16:43:24;;;;;;;;;;;14.30;99.90;;;;;;5030266;28;20425;-66
2021/10/27 16:45:51;;;;;;;;;;;14.30;99.90;;;;;;5025685;28;20302;-67
2021/10/27 16:48:17;;;;;;;;;;;14.30;99.90;;;;;;5028102;28;20290;-67
2021/10/27 16:50:42;;;;;;;;;;;14.30;99.90;;;;;;5034802;28;19924;-67
2021/10/27 16:53:08;;;;;;;;;;;14.20;99.90;;;;;;5012126;28;20418;-67
2021/10/27 16:55:33;;;;;;;;;;;14.30;99.90;;;;;;5010914;28;19921;-67
2021/10/27 16:57:59;;;;;;;;;;;14.30;99.90;;;;;;5023967;28;19924;-66
2021/10/27 17:00:27;;;;;;;;;;;14.20;99.90;;;;;;5030507;28;20269;-66
2021/10/27 17:02:52;;;;;;;;;;;14.10;99.90;;;;;;5010691;28;19952;-66
2021/10/27 17:05:18;;;;;;;;;;;14.20;99.90;;;;;;5010627;28;19917;-66
2021/10/27 17:07:44;;;;;;;;;;;14.20;99.90;;;;;;5012037;28;19918;-66
2021/10/27 17:10:10;;;;;;;;;;;14.20;99.90;;;;;;5012042;28;20535;-66
2021/10/27 17:12:36;;;;;;;;;;;14.20;99.90;;;;;;5042387;28;19920;-66
2021/10/27 17:15:03;;;;;;;;;;;14.20;99.90;;;;;;5035853;28;19928;-66
2021/10/27 17:17:28;;;;;;;;;;;14.10;99.90;;;;;;5016228;28;19917;-66
2021/10/27 17:19:55;;;;;;;;;;;14.10;99.90;;;;;;5030049;28;19982;-66
2021/10/27 17:22:25;;;;;;;;;;;14.10;99.90;;;;;;5046376;28;19921;-66
2021/10/27 17:24:50;;;;;;;;;;;14.10;99.90;;;;;;5035487;28;19917;-66
2021/10/27 17:27:16;;;;;;;;;;;14.00;99.90;;;;;;5033857;28;19944;-66
2021/10/27 17:29:41;;;;;;;;;;;14.00;99.90;;;;;;5034336;28;19920;-66
2021/10/27 17:32:07;;;;;;;;;;;14.00;99.90;;;;;;5034416;28;20492;-66
2021/10/27 17:34:33;;;;;;;;;;;14.00;99.90;;;;;;5033256;28;19924;-66
2021/10/27 17:37:00;;;;;;;;;;;13.90;99.90;;;;;;5033562;28;19928;-66
2021/10/27 17:39:26;;;;;;;;;;;13.90;99.90;;;;;;5033335;28;19917;-66
2021/10/27 17:41:52;;;;;;;;;;;13.80;99.90;;;;;;5033981;28;19952;-66
2021/10/27 17:44:18;;;;;;;;;;;13.80;99.90;;;;;;5033821;28;20307;-66
2021/10/27 17:47:22;;;;;;;;;;;13.70;99.90;;;;;;5033216;28;19921;-66
2021/10/27 17:58:27;;;;;;;;;;;13.40;99.90;;;;;;5022319;28;20369;-66
2021/10/27 18:00:12;;;;;;;;;;;13.30;99.90;;;;;;5026350;28;19921;-66
2021/10/27 18:02:40;;;;;;;;;;;13.20;99.90;;;;;;5033825;28;19921;-65
2021/10/27 18:05:06;;;;;;;;;;;13.20;99.90;;;;;;5020676;28;19917;-66
2021/10/27 18:07:33;;;;;;;;;;;13.10;99.90;;;;;;5032231;28;20012;-66
2021/10/27 18:10:00;;;;;;;;;;;13.00;99.90;;;;;;5030047;28;19964;-66
2021/10/27 18:12:27;;;;;;;;;;;12.80;99.90;;;;;;5031669;28;19967;-66
2021/10/27 18:14:54;;;;;;;;;;;12.70;99.90;;;;;;5033830;28;19925;-66
2021/10/27 18:17:22;;;;;;;;;;;12.70;99.90;;;;;;5027615;28;20375;-66
2021/10/27 18:20:03;;;;;;;;;;;12.50;99.90;;;;;;5032714;28;19928;-66
2021/10/27 18:22:47;;;;;;;;;;;12.50;99.90;;;;;;5033531;28;19943;-66
2021/10/27 18:25:21;;;;;;;;;;;12.40;99.90;;;;;;5023323;28;20452;-66
2021/10/27 18:27:56;;;;;;;;;;;12.40;99.90;;;;;;5032159;28;20399;-66
2021/10/27 18:36:19;;;;;;;;;;;12.20;99.90;;;;;;4982771;28;19980;-66
2021/10/27 18:38:49;;;;;;;;;;;12.10;99.90;;;;;;5010779;28;19917;-66
2021/10/27 18:41:18;;;;;;;;;;;12.10;99.90;;;;;;5012656;28;19971;-66
2021/10/27 18:43:44;;;;;;;;;;;12.00;99.90;;;;;;5031890;28;19925;-66
2021/10/27 18:46:10;;;;;;;;;;;12.00;99.90;;;;;;5032375;28;20392;-65
2021/10/27 18:48:36;;;;;;;;;;;11.90;99.90;;;;;;5032894;28;19917;-66
2021/10/27 18:51:05;;;;;;;;;;;11.90;99.90;;;;;;5028945;28;19921;-66
2021/10/27 19:12:13;;;;;;;;;;;11.50;99.90;;;;;;5030137;28;19921;-66
2021/10/27 19:15:01;;;;;;;;;;;11.40;99.90;;;;;;5031709;28;19970;-67
2021/10/27 19:17:27;;;;;;;;;;;11.40;99.90;;;;;;5020586;28;20690;-65
2021/10/27 19:19:53;;;;;;;;;;;11.30;99.90;;;;;;5031185;28;20437;-66
2021/10/27 19:22:19;;;;;;;;;;;11.30;99.90;;;;;;5028770;28;19921;-67
2021/10/27 19:27:23;;;;;;;;;;;11.10;99.90;;;;;;5033245;28;19928;-66